Piedmont, Quebec

1:42 PM EDT on September 02, 2015 (GMT -0400)
Morin-Heights | | Change Station
CLOSE
Current Station
Personal Weather Station
Location: Morin-Heights, QUEBEC
Elevation: 1086 ft
Nearby Weather Stations

Elev 1086 ft 45.92 °N, 74.24 °W | Updated 5 minutes ago

Overcast
Overcast
80.4 °F
Feels Like 81 °F
N
1.1
Wind Variable Wind from SSW

Today is forecast to be nearly the same temperature as yesterday.

Today
High -- | Low -- °F
--% Chance of Precip.
Yesterday
High -- | Low -- °F
Precip. -- in
6:18 AM 7:33 PM
Waning Gibbous, 78% visible
Pressure 29.97 in
Visibility 5.0 miles
Clouds Overcast 800 ft
Heat Index 81 °F
Dew Point 59 °F
Humidity 48%
Rainfall 0.00 in
Snow Depth Not available.
UV 2 out of 12
Pollen Not available.
Air Quality Not available.
Flu Activity Not available.
METAR CYMX 021700Z 25009G15KT 180V280 5SM BR OVC008 22/20 A2997 RMK SF8 SLP148 DENSITY ALT 1000FT
Pressure 29.97 in
Visibility 5.0 miles
Clouds Overcast 800 ft
Heat Index 81 °F
Dew Point 59 °F
Humidity 48%
Rainfall 0.00 in
Snow Depth Not available.
UV 2 out of 12
Pollen Not available.
Air Quality Not available.
Flu Activity Not available.
METAR CYMX 021700Z 25009G15KT 180V280 5SM BR OVC008 22/20 A2997 RMK SF8 SLP148 DENSITY ALT 1000FT

10-Day Weather Forecast

×

Almanac

Astronomy

Sep. 02, 2015 Rise Set
Actual Time
Civil Twilight
Nautical Twilight
Astronomical Twilight
Moon
Length of Visible Light
Length of Day
Tomorrow will be .
, % of the Moon is Illuminated

Today's Extremes

Country Highs Country Lows

Community

WunderPhotos

Upload Photos

1,851,789 photos uploaded!

WunderBlogs® & News

Nearby

Air Quality

  Air Quality AQ Index Pollutant
Not available.

Snow Depth

Station Depth Elevation

Earthquake Activity

City Distance Mag. Time & Date
Minimum magnitude displayed is 2.5.

Coastal Water Temperatures

Place Temperature

Stations

Nearby Weather Stations

Station Location Temp. Windchill Dew Point Humidity Wind Precip. Elev Updated Type